Time;durP1;ratioP1;P1;durP2;ratioP2;P2;SDS_P1;SDS_P2;PMS_P1;PMS_P2;Temp;Humidity;BMP_temperature;BMP_pressure;BME280_temperature;BME280_humidity;BME280_pressure;Samples;Min_cycle;Max_cycle;Signal;HPM_P1;HPM_P2
2023/05/16 00:01:09;;;;;;;8.93;2.03;;;;;;;10.42;100.00;101729.47;5088775;28;20035;-89
2023/05/16 00:03:36;;;;;;;7.00;2.10;;;;;;;10.48;100.00;101734.47;5097140;28;20038;-88
2023/05/16 00:06:02;;;;;;;7.30;2.22;;;;;;;9.99;100.00;101748.56;5104015;28;20028;-88
2023/05/16 00:08:28;;;;;;;9.73;2.13;;;;;;;10.48;100.00;101747.66;5085949;28;20036;-87
2023/05/16 00:10:53;;;;;;;16.77;3.10;;;;;;;10.42;100.00;101749.06;5087008;28;20038;-88
2023/05/16 00:13:24;;;;;;;10.75;1.88;;;;;;;10.19;100.00;101752.38;5103169;28;20030;-88
2023/05/16 00:15:54;;;;;;;7.18;1.75;;;;;;;10.27;100.00;101748.63;5088183;28;20057;-88
2023/05/16 00:18:21;;;;;;;8.23;1.83;;;;;;;10.36;100.00;101756.91;5079097;28;20052;-88
2023/05/16 00:20:50;;;;;;;8.88;1.65;;;;;;;10.07;100.00;101753.19;5078032;28;20086;-88
2023/05/16 00:23:16;;;;;;;9.70;1.88;;;;;;;10.53;100.00;101750.19;5080843;28;20030;-88
2023/05/16 00:25:41;;;;;;;8.80;1.88;;;;;;;10.61;100.00;101757.63;5093914;28;20032;-88
2023/05/16 00:28:07;;;;;;;10.30;2.42;;;;;;;10.54;100.00;101763.00;5078051;28;20561;-88
2023/05/16 00:30:33;;;;;;;11.32;2.90;;;;;;;10.36;100.00;101756.91;5095616;28;20027;-87
2023/05/16 00:32:58;;;;;;;7.88;1.90;;;;;;;10.11;100.00;101753.31;5083482;28;20057;-87
2023/05/16 00:35:24;;;;;;;11.18;3.17;;;;;;;10.03;100.00;101746.69;5096540;28;20020;-88
2023/05/16 00:37:50;;;;;;;10.65;2.35;;;;;;;10.13;100.00;101754.59;5079652;28;20368;-88
2023/05/16 00:40:15;;;;;;;10.57;2.03;;;;;;;10.31;100.00;101755.16;5078557;28;20808;-87
2023/05/16 00:42:40;;;;;;;13.35;2.30;;;;;;;10.18;100.00;101750.72;5079994;28;20042;-87
2023/05/16 00:45:07;;;;;;;12.43;2.80;;;;;;;10.09;100.00;101741.66;5075959;28;20028;-88
2023/05/16 00:47:32;;;;;;;8.73;2.38;;;;;;;10.03;100.00;101757.06;5074683;28;21027;-87
2023/05/16 00:49:58;;;;;;;8.45;2.75;;;;;;;10.22;100.00;101753.63;5079320;28;20031;-87
2023/05/16 00:52:24;;;;;;;6.13;1.80;;;;;;;10.42;100.00;101754.66;5076630;28;20059;-88
2023/05/16 00:54:50;;;;;;;7.85;2.00;;;;;;;10.38;100.00;101755.38;5082166;28;20385;-87
2023/05/16 00:57:16;;;;;;;6.30;2.40;;;;;;;10.36;100.00;101763.31;5080956;28;20366;-89
2023/05/16 00:59:42;;;;;;;6.07;2.65;;;;;;;10.10;100.00;101754.50;5080149;28;20036;-89
2023/05/16 01:02:08;;;;;;;4.25;1.90;;;;;;;9.81;100.00;101759.19;5077666;28;20485;-89
2023/05/16 01:04:34;;;;;;;8.77;2.05;;;;;;;10.18;100.00;101759.13;5084818;28;20039;-89
2023/05/16 01:07:01;;;;;;;9.05;2.40;;;;;;;10.02;100.00;101758.25;5081599;28;20027;-89
2023/05/16 01:09:26;;;;;;;13.68;1.98;;;;;;;10.25;100.00;101767.75;5084018;28;20081;-89
2023/05/16 01:12:05;;;;;;;6.90;1.60;;;;;;;10.25;100.00;101767.75;5074336;28;20501;-88
2023/05/16 01:14:58;;;;;;;8.40;2.08;;;;;;;10.28;100.00;101772.63;5074630;28;20032;-89
2023/05/16 01:18:00;;;;;;;10.65;1.73;;;;;;;10.23;100.00;101769.28;5075417;28;20036;-89
2023/05/16 01:20:41;;;;;;;4.22;1.60;;;;;;;10.13;100.00;101764.97;5082898;28;20054;-89
2023/05/16 01:23:25;;;;;;;7.05;1.73;;;;;;;10.30;100.00;101763.91;5077905;28;20032;-89
2023/05/16 01:26:14;;;;;;;6.07;1.40;;;;;;;10.13;100.00;101764.97;5083204;28;20529;-89
2023/05/16 01:28:40;;;;;;;4.30;1.65;;;;;;;10.33;100.00;101778.03;5081902;28;20423;-89
2023/05/16 01:31:06;;;;;;;9.95;3.08;;;;;;;10.42;100.00;101771.47;5082140;28;20107;-89
2023/05/16 01:33:31;;;;;;;9.48;1.55;;;;;;;10.13;100.00;101776.16;5082543;28;20135;-89
2023/05/16 01:36:09;;;;;;;12.57;2.10;;;;;;;10.09;100.00;101775.25;5078583;28;20044;-88
2023/05/16 01:38:40;;;;;;;8.77;1.80;;;;;;;10.17;100.00;101768.69;5077856;28;20046;-88
2023/05/16 01:41:26;;;;;;;8.25;1.65;;;;;;;10.19;100.00;101777.56;5098826;28;20512;-88
2023/05/16 01:44:02;;;;;;;7.80;1.85;;;;;;;10.20;100.00;101773.56;5081981;28;20027;-88
2023/05/16 01:46:33;;;;;;;6.55;2.00;;;;;;;10.36;100.00;101770.88;5096185;28;20034;-88
2023/05/16 01:49:08;;;;;;;10.07;1.70;;;;;;;10.27;100.00;101773.81;5101334;28;20481;-88
2023/05/16 01:51:37;;;;;;;10.50;3.40;;;;;;;10.25;100.00;101773.34;5079933;28;20138;-88
2023/05/16 01:54:08;;;;;;;11.25;3.20;;;;;;;9.84;100.00;101778.06;5078877;28;20118;-88
2023/05/16 01:56:36;;;;;;;15.63;2.20;;;;;;;10.02;100.00;101777.81;5095097;28;20032;-88
2023/05/16 01:59:03;;;;;;;8.38;2.65;;;;;;;10.01;100.00;101771.41;5102202;27;20499;-88
2023/05/16 02:01:30;;;;;;;6.55;2.45;;;;;;;9.75;100.00;101780.19;5100674;28;20028;-88
2023/05/16 02:03:55;;;;;;;9.00;2.10;;;;;;;9.93;100.00;101781.56;5078765;28;20496;-88
2023/05/16 02:06:21;;;;;;;4.82;1.65;;;;;;;9.80;100.00;101779.94;5082531;28;20023;-88
2023/05/16 02:08:47;;;;;;;4.18;1.52;;;;;;;10.06;100.00;101775.97;5081974;28;20353;-88
2023/05/16 02:11:13;;;;;;;8.23;2.00;;;;;;;10.05;100.00;101789.09;5100113;28;20028;-87
2023/05/16 02:13:38;;;;;;;5.10;1.63;;;;;;;9.96;100.00;101785.63;5094907;27;20058;-88
2023/05/16 02:16:04;;;;;;;6.57;2.25;;;;;;;9.92;100.00;101785.50;5093670;28;20028;-88
2023/05/16 02:18:29;;;;;;;10.50;1.83;;;;;;;9.80;100.00;101779.94;5088311;28;20173;-89
2023/05/16 02:20:54;;;;;;;6.20;1.75;;;;;;;9.85;100.00;101785.31;5090888;28;20218;-88
2023/05/16 02:23:20;;;;;;;12.75;1.90;;;;;;;9.95;100.00;101787.63;5105462;28;20378;-88
2023/05/16 02:25:45;;;;;;;7.47;1.67;;;;;;;10.04;100.00;101783.88;5081821;28;20123;-88
2023/05/16 02:28:11;;;;;;;9.68;1.85;;;;;;;10.18;100.00;101775.91;5086410;28;20110;-88
2023/05/16 02:30:36;;;;;;;5.50;1.50;;;;;;;10.04;100.00;101784.69;5102353;28;20461;-88
2023/05/16 02:33:01;;;;;;;9.55;2.47;;;;;;;9.55;100.00;101777.16;5104820;28;20481;-88
2023/05/16 02:35:27;;;;;;;5.15;1.52;;;;;;;9.83;100.00;101790.44;5103617;28;20173;-88
2023/05/16 02:37:52;;;;;;;6.95;1.55;;;;;;;9.53;100.00;101787.06;5086280;28;20388;-89
2023/05/16 02:40:17;;;;;;;8.45;1.90;;;;;;;9.68;100.00;101782.75;5095846;28;20498;-89
2023/05/16 02:42:43;;;;;;;9.48;1.58;;;;;;;9.90;100.00;101787.84;5107466;28;20035;-88
2023/05/16 02:45:09;;;;;;;8.85;2.28;;;;;;;9.94;100.00;101780.38;5081633;28;20547;-88
2023/05/16 02:47:35;;;;;;;7.30;2.00;;;;;;;9.89;100.00;101789.03;5077771;28;20632;-88
2023/05/16 02:50:00;;;;;;;8.05;1.58;;;;;;;9.83;100.00;101787.63;5098466;28;20465;-88
2023/05/16 02:52:25;;;;;;;5.95;2.65;;;;;;;9.90;100.00;101790.63;5086456;28;20035;-89
2023/05/16 02:54:51;;;;;;;6.25;2.05;;;;;;;9.64;100.00;101788.22;5078557;28;20040;-88
2023/05/16 02:57:16;;;;;;;9.02;2.13;;;;;;;9.73;100.00;101793.69;5086257;28;20035;-88
2023/05/16 02:59:42;;;;;;;11.98;1.90;;;;;;;9.60;100.00;101795.66;5082871;28;20408;-88
2023/05/16 03:02:07;;;;;;;3.17;1.50;;;;;;;9.80;100.00;101796.69;5103366;28;20085;-88
2023/05/16 03:04:32;;;;;;;7.30;1.85;;;;;;;9.83;100.00;101800.81;5100003;28;20393;-88
2023/05/16 03:06:58;;;;;;;7.70;2.50;;;;;;;9.50;100.00;101805.31;5102420;28;20032;-87
2023/05/16 03:09:23;;;;;;;5.15;1.77;;;;;;;9.56;100.00;101806.72;5078503;28;20039;-88
2023/05/16 03:11:48;;;;;;;5.38;1.73;;;;;;;9.69;100.00;101801.16;5086324;28;20465;-87
2023/05/16 03:14:14;;;;;;;4.55;2.10;;;;;;;9.71;100.00;101805.22;5080729;28;20116;-88
2023/05/16 03:16:42;;;;;;;8.27;1.80;;;;;;;9.57;100.00;101816.75;5098921;28;20099;-88
2023/05/16 03:19:08;;;;;;;8.18;1.88;;;;;;;9.48;100.00;101804.03;5083634;28;20138;-88
2023/05/16 03:21:33;;;;;;;5.95;1.92;;;;;;;9.08;100.00;101813.84;5081663;28;20107;-87
2023/05/16 03:23:58;;;;;;;11.88;2.53;;;;;;;9.50;100.00;101810.91;5075364;28;20073;-87
2023/05/16 03:26:24;;;;;;;6.50;2.42;;;;;;;9.09;100.00;101807.13;5078532;28;20164;-87
2023/05/16 03:28:50;;;;;;;12.52;2.25;;;;;;;9.45;100.00;101804.75;5102583;28;20039;-87
2023/05/16 03:31:16;;;;;;;6.10;1.75;;;;;;;9.49;100.00;101809.28;5084780;28;20028;-87
2023/05/16 03:33:41;;;;;;;9.43;2.42;;;;;;;9.40;100.00;101816.13;5074618;28;20031;-87
2023/05/16 03:36:07;;;;;;;7.95;1.55;;;;;;;9.42;100.00;101809.03;5079047;28;20469;-87
2023/05/16 03:38:32;;;;;;;7.38;1.55;;;;;;;9.52;100.00;101816.97;5079492;28;20038;-88
2023/05/16 03:40:58;;;;;;;7.22;1.77;;;;;;;9.61;100.00;101807.66;5095940;28;20054;-87
2023/05/16 03:43:23;;;;;;;7.85;1.70;;;;;;;9.59;100.00;101818.38;5103194;28;20092;-87
2023/05/16 03:45:49;;;;;;;9.65;1.80;;;;;;;9.38;100.00;101812.88;5079222;28;20027;-87
2023/05/16 03:48:14;;;;;;;9.40;2.08;;;;;;;9.62;100.00;101814.91;5092464;28;20037;-87
2023/05/16 03:50:40;;;;;;;7.28;1.67;;;;;;;9.84;100.00;101827.59;5096338;28;20063;-87
2023/05/16 03:53:06;;;;;;;7.07;1.60;;;;;;;9.73;100.00;101819.66;5099706;28;20142;-87
2023/05/16 03:55:31;;;;;;;4.55;2.10;;;;;;;9.74;100.00;101817.69;5080973;28;20114;-88
2023/05/16 03:57:57;;;;;;;8.43;1.67;;;;;;;9.74;100.00;101826.09;5073582;28;20097;-88
2023/05/16 04:00:22;;;;;;;6.45;1.85;;;;;;;9.63;100.00;101824.91;5102856;28;20039;-87
2023/05/16 04:02:47;;;;;;;13.55;3.30;;;;;;;9.35;100.00;101825.56;5081835;28;20032;-87
2023/05/16 04:05:13;;;;;;;7.55;2.28;;;;;;;9.57;100.00;101838.28;5082222;28;20512;-87
2023/05/16 04:07:39;;;;;;;5.80;1.45;;;;;;;9.51;100.00;101832.13;5099455;28;20115;-88
2023/05/16 04:10:05;;;;;;;8.07;1.73;;;;;;;9.69;100.00;101831.91;5101915;28;20058;-87
2023/05/16 04:12:31;;;;;;;8.23;1.40;;;;;;;9.29;100.00;101829.75;5076233;28;20040;-87
2023/05/16 04:14:57;;;;;;;5.20;2.33;;;;;;;9.46;100.00;101837.09;5086395;28;20392;-87
2023/05/16 04:17:22;;;;;;;10.63;2.80;;;;;;;9.48;100.00;101841.19;5090827;28;20419;-86
2023/05/16 04:19:47;;;;;;;7.15;1.73;;;;;;;9.60;100.00;101831.19;5074415;28;20103;-87
2023/05/16 04:22:13;;;;;;;9.55;2.05;;;;;;;9.49;100.00;101831.66;5086480;28;20032;-86
2023/05/16 04:24:38;;;;;;;14.18;1.80;;;;;;;9.64;100.00;101841.34;5102893;27;20042;-87
2023/05/16 04:27:07;;;;;;;8.63;2.13;;;;;;;9.63;100.00;101841.66;5086583;28;20039;-86
2023/05/16 04:29:32;;;;;;;6.85;1.67;;;;;;;9.65;100.00;101850.53;5094248;28;20114;-86
2023/05/16 04:31:58;;;;;;;5.97;1.80;;;;;;;9.62;100.00;101845.66;5083577;28;20126;-86
2023/05/16 04:34:26;;;;;;;3.42;1.85;;;;;;;9.59;100.00;101851.91;5080954;28;20043;-85
2023/05/16 04:36:53;;;;;;;7.20;1.83;;;;;;;9.64;100.00;101843.31;5081501;28;20067;-86
2023/05/16 04:39:18;;;;;;;4.13;1.45;;;;;;;9.76;100.00;101843.31;5084009;28;20063;-86
2023/05/16 04:41:43;;;;;;;7.53;1.88;;;;;;;9.54;100.00;101852.97;5094677;28;20058;-86
2023/05/16 04:44:10;;;;;;;9.07;1.60;;;;;;;9.57;100.00;101860.63;5103423;28;20024;-86
2023/05/16 04:46:35;;;;;;;7.32;1.83;;;;;;;9.63;100.00;101853.66;5075918;28;20072;-86
2023/05/16 04:49:02;;;;;;;3.88;1.45;;;;;;;9.59;100.00;101863.09;5083805;28;20031;-86
2023/05/16 04:51:27;;;;;;;7.68;1.42;;;;;;;9.56;100.00;101853.44;5100339;28;20035;-85
2023/05/16 04:53:53;;;;;;;9.13;1.85;;;;;;;9.68;99.74;101852.66;5099527;28;20466;-86
2023/05/16 04:56:22;;;;;;;8.57;1.73;;;;;;;9.70;99.88;101855.91;5099511;28;20110;-86
2023/05/16 04:58:47;;;;;;;13.35;2.67;;;;;;;9.74;99.19;101856.84;5097203;28;20032;-86
2023/05/16 05:01:12;;;;;;;8.90;1.65;;;;;;;9.69;100.00;101868.25;5083347;28;20019;-86
2023/05/16 05:03:38;;;;;;;5.38;1.67;;;;;;;9.60;100.00;101865.56;5102874;28;20067;-86
2023/05/16 05:06:03;;;;;;;6.80;1.70;;;;;;;9.57;100.00;101872.66;5099682;28;20084;-86
2023/05/16 05:08:29;;;;;;;3.78;1.58;;;;;;;9.59;100.00;101872.28;5097898;28;20028;-86
2023/05/16 05:10:55;;;;;;;5.63;2.50;;;;;;;9.43;100.00;101872.16;5103652;28;20031;-86
2023/05/16 05:13:21;;;;;;;4.63;1.13;;;;;;;9.70;100.00;101881.06;5097232;28;20039;-86
2023/05/16 05:15:46;;;;;;;10.13;2.38;;;;;;;9.50;100.00;101877.97;5098074;28;20036;-87
2023/05/16 05:18:11;;;;;;;5.32;1.95;;;;;;;9.41;100.00;101877.28;5097807;28;20239;-85
2023/05/16 05:20:37;;;;;;;6.10;2.08;;;;;;;9.41;100.00;101868.91;5078004;28;20086;-86
2023/05/16 05:23:02;;;;;;;10.77;2.28;;;;;;;9.67;100.00;101874.16;5095334;28;22318;-86
2023/05/16 05:25:27;;;;;;;9.02;2.03;;;;;;;9.55;100.00;101874.97;5095150;28;20537;-86
2023/05/16 05:27:53;;;;;;;9.52;1.63;;;;;;;9.53;100.00;101877.31;5078485;28;20293;-85
2023/05/16 05:30:18;;;;;;;9.85;2.15;;;;;;;9.43;100.00;101874.97;5081457;28;20208;-86
2023/05/16 05:32:43;;;;;;;4.68;1.58;;;;;;;9.53;100.00;101882.09;5104336;28;20024;-86
2023/05/16 05:35:09;;;;;;;9.88;2.45;;;;;;;9.53;100.00;101882.91;5099473;28;20055;-86
2023/05/16 05:37:35;;;;;;;5.60;2.08;;;;;;;9.37;100.00;101884.72;5082144;28;20055;-86
2023/05/16 05:40:00;;;;;;;6.18;1.77;;;;;;;9.60;100.00;101881.50;5096129;28;20130;-85
2023/05/16 05:42:25;;;;;;;8.98;1.77;;;;;;;9.51;100.00;101892.81;5108431;28;20027;-85
2023/05/16 05:44:52;;;;;;;6.47;1.75;;;;;;;9.66;100.00;101889.31;5099466;28;20602;-85
2023/05/16 05:47:17;;;;;;;4.90;1.75;;;;;;;9.61;100.00;101888.72;5102366;28;20027;-85
2023/05/16 05:49:42;;;;;;;12.57;2.60;;;;;;;9.79;100.00;101895.75;5088114;28;20034;-85
2023/05/16 05:52:08;;;;;;;5.63;1.25;;;;;;;9.95;100.00;101893.06;5087356;28;20035;-85
2023/05/16 05:54:33;;;;;;;7.03;1.75;;;;;;;9.84;100.00;101906.69;5095257;28;20038;-85
2023/05/16 05:56:59;;;;;;;7.32;1.60;;;;;;;9.67;100.00;101899.34;5072160;28;20035;-85
2023/05/16 05:59:24;;;;;;;10.52;1.80;;;;;;;9.90;100.00;101905.31;5101113;28;20043;-85
2023/05/16 06:01:53;;;;;;;6.53;1.35;;;;;;;9.91;100.00;101908.94;5090277;28;20023;-86
2023/05/16 06:04:19;;;;;;;5.90;1.50;;;;;;;10.01;100.00;101902.84;5101353;28;20155;-85
2023/05/16 06:06:45;;;;;;;4.95;1.52;;;;;;;10.02;100.00;101914.88;5091979;28;20027;-88
2023/05/16 06:09:12;;;;;;;5.30;1.60;;;;;;;10.18;99.73;101910.19;5079508;28;20042;-78
2023/05/16 06:11:38;;;;;;;9.07;1.65;;;;;;;10.30;99.16;101920.63;5108087;28;20039;-78
2023/05/16 06:14:04;;;;;;;7.95;1.15;;;;;;;10.29;100.00;101910.56;5105781;28;20024;-78
2023/05/16 06:16:30;;;;;;;8.00;1.42;;;;;;;10.40;100.00;101916.53;5100906;28;20668;-79
2023/05/16 06:18:56;;;;;;;6.90;2.17;;;;;;;10.34;98.97;101915.94;5086091;28;20698;-75
2023/05/16 06:21:21;;;;;;;4.72;1.38;;;;;;;10.55;98.34;101924.22;5102586;28;20431;-75
2023/05/16 06:23:47;;;;;;;7.05;2.08;;;;;;;10.42;99.00;101917.00;5100477;28;20043;-75
2023/05/16 06:26:12;;;;;;;5.15;1.17;;;;;;;10.40;99.88;101919.34;5089798;28;20031;-76
2023/05/16 06:28:37;;;;;;;5.38;2.13;;;;;;;10.26;99.94;101926.06;5098210;28;20032;-75
2023/05/16 06:31:03;;;;;;;10.73;1.73;;;;;;;10.31;100.00;101925.88;5096858;28;20440;-75
2023/05/16 06:33:28;;;;;;;6.80;1.75;;;;;;;10.36;100.00;101920.03;5081442;28;20024;-75
2023/05/16 06:35:53;;;;;;;4.82;1.38;;;;;;;10.29;100.00;101914.22;5098630;28;20027;-76
2023/05/16 06:38:19;;;;;;;5.07;2.25;;;;;;;10.40;99.91;101924.94;5104248;28;20110;-75
2023/05/16 06:40:45;;;;;;;7.72;1.98;;;;;;;10.49;100.00;101928.41;5099664;28;20092;-76
2023/05/16 06:43:13;;;;;;;5.75;1.27;;;;;;;10.44;99.36;101925.88;5095439;28;20031;-75
2023/05/16 06:45:38;;;;;;;5.70;2.30;;;;;;;10.54;100.00;101936.56;5097086;28;20024;-75
2023/05/16 06:48:06;;;;;;;5.15;1.17;;;;;;;10.49;100.00;101929.22;5085153;28;20610;-75
2023/05/16 06:50:34;;;;;;;5.72;1.58;;;;;;;10.50;100.00;101936.47;5099307;28;20023;-75
2023/05/16 06:52:59;;;;;;;7.07;2.17;;;;;;;10.55;98.09;101938.22;5088967;28;20092;-75
2023/05/16 06:55:25;;;;;;;10.70;3.40;;;;;;;10.74;94.53;101924.41;5089418;28;20492;-75
2023/05/16 06:57:50;;;;;;;12.55;2.88;;;;;;;10.89;92.72;101933.25;5102075;28;20031;-75
2023/05/16 07:00:16;;;;;;;6.78;1.15;;;;;;;10.79;91.43;101928.94;5102335;28;20100;-77
2023/05/16 07:02:41;;;;;;;3.90;1.50;;;;;;;10.94;93.66;101930.19;5097949;28;20032;-76
2023/05/16 07:05:07;;;;;;;3.58;1.00;;;;;;;10.97;94.40;101938.69;5085630;28;20034;-77
2023/05/16 07:07:32;;;;;;;5.18;1.25;;;;;;;10.83;93.04;101934.66;5105658;28;20043;-77
2023/05/16 07:09:57;;;;;;;3.55;1.10;;;;;;;10.60;93.37;101946.34;5088183;28;20431;-76
2023/05/16 07:12:23;;;;;;;6.25;1.52;;;;;;;10.70;93.25;101940.28;5104897;28;20477;-77
2023/05/16 07:14:48;;;;;;;4.25;1.05;;;;;;;10.66;93.61;101938.53;5088072;28;20051;-76
2023/05/16 07:17:14;;;;;;;2.60;1.10;;;;;;;10.69;94.19;101947.06;5107302;28;20020;-76
2023/05/16 07:19:39;;;;;;;3.22;1.00;;;;;;;10.73;93.63;101944.34;5107426;28;20393;-77
2023/05/16 07:22:05;;;;;;;3.17;0.70;;;;;;;10.29;95.91;101941.34;5100053;28;20135;-77
2023/05/16 07:24:30;;;;;;;5.50;1.25;;;;;;;10.56;94.83;101951.03;5108796;28;20028;-77
2023/05/16 07:26:55;;;;;;;4.35;1.20;;;;;;;10.68;93.59;101950.19;5087784;28;20031;-77
2023/05/16 07:29:21;;;;;;;3.30;1.58;;;;;;;10.96;92.56;101948.28;5101837;28;20063;-77
2023/05/16 07:31:46;;;;;;;5.78;0.98;;;;;;;10.97;90.88;101955.50;5096275;28;20047;-77
2023/05/16 07:34:11;;;;;;;2.67;1.08;;;;;;;11.01;88.98;101955.63;5100888;28;20023;-76
2023/05/16 07:36:37;;;;;;;5.68;1.30;;;;;;;10.93;89.68;101962.16;5088490;28;20396;-76
2023/05/16 07:39:03;;;;;;;4.07;1.00;;;;;;;10.93;88.24;101948.97;5109796;28;20499;-76
2023/05/16 07:41:29;;;;;;;5.40;1.73;;;;;;;11.10;88.19;101959.09;5109274;28;20051;-77
2023/05/16 07:43:55;;;;;;;3.33;1.02;;;;;;;11.11;89.33;101957.94;5101018;28;20098;-76
2023/05/16 07:46:20;;;;;;;6.20;2.05;;;;;;;11.05;88.83;101964.94;5088102;28;20422;-76
2023/05/16 07:48:46;;;;;;;8.23;1.27;;;;;;;11.01;87.42;101955.63;5099882;28;20050;-76
2023/05/16 07:51:11;;;;;;;2.17;1.00;;;;;;;11.14;86.73;101959.19;5106231;28;20034;-76
2023/05/16 07:53:36;;;;;;;4.65;1.02;;;;;;;11.38;86.26;101958.28;5104010;28;20494;-77
2023/05/16 07:56:02;;;;;;;6.35;1.25;;;;;;;11.56;87.14;101942.78;5086011;28;20127;-77
2023/05/16 07:58:28;;;;;;;2.28;1.02;;;;;;;11.52;84.06;101955.88;5083808;28;20636;-77
2023/05/16 08:00:53;;;;;;;3.00;1.25;;;;;;;11.33;84.17;101966.94;5082199;28;20031;-77
2023/05/16 08:03:19;;;;;;;2.13;1.30;;;;;;;11.51;84.92;101959.88;5100445;28;20478;-76
2023/05/16 08:05:44;;;;;;;8.23;0.70;;;;;;;11.45;84.34;101972.50;5086827;28;20091;-77
2023/05/16 08:08:10;;;;;;;2.05;0.88;;;;;;;11.43;84.05;101954.41;5107664;28;20031;-77
2023/05/16 08:10:35;;;;;;;4.03;1.05;;;;;;;11.45;83.92;101947.28;5090602;28;20118;-77
2023/05/16 08:13:00;;;;;;;7.25;1.00;;;;;;;11.57;84.45;101952.81;5081407;28;20028;-77
2023/05/16 08:15:26;;;;;;;5.80;1.55;;;;;;;11.40;84.94;101947.53;5098639;28;20379;-77
2023/05/16 08:17:56;;;;;;;4.78;1.75;;;;;;;11.39;84.61;101955.13;5107680;28;20450;-77
2023/05/16 08:20:21;;;;;;;5.47;1.00;;;;;;;11.63;84.76;101960.97;5080171;28;20024;-77
2023/05/16 08:22:46;;;;;;;3.75;0.95;;;;;;;11.72;86.08;101956.00;5108143;28;20020;-77
2023/05/16 08:25:12;;;;;;;2.22;1.30;;;;;;;11.71;84.26;101960.78;5080069;28;20036;-78
2023/05/16 08:27:37;;;;;;;6.65;1.63;;;;;;;11.88;84.43;101959.66;5096023;28;20054;-77
2023/05/16 08:30:03;;;;;;;3.92;1.17;;;;;;;11.94;85.40;101958.22;5103677;28;20091;-77
2023/05/16 08:32:29;;;;;;;6.13;1.38;;;;;;;11.99;83.96;101955.19;5100876;28;20062;-77
2023/05/16 08:34:54;;;;;;;8.38;1.33;;;;;;;12.01;81.54;101960.41;5085373;28;20118;-77
2023/05/16 08:37:20;;;;;;;4.95;1.30;;;;;;;12.06;81.85;101951.72;5103016;28;20023;-76
2023/05/16 08:39:45;;;;;;;4.25;1.15;;;;;;;11.92;82.43;101952.16;5087474;28;20437;-78
2023/05/16 08:42:10;;;;;;;5.20;1.50;;;;;;;11.82;81.68;101949.84;5101514;28;20068;-77
2023/05/16 08:44:36;;;;;;;6.13;1.38;;;;;;;11.62;77.86;101950.94;5105316;28;20027;-77
2023/05/16 08:47:17;;;;;;;6.93;1.20;;;;;;;11.64;81.55;101959.78;5101121;28;20031;-78
2023/05/16 08:49:43;;;;;;;3.63;1.20;;;;;;;11.92;81.73;101966.19;5081867;28;20024;-77
2023/05/16 08:52:09;;;;;;;3.20;1.77;;;;;;;12.16;79.97;101959.63;5107043;28;20043;-77
2023/05/16 08:54:36;;;;;;;5.30;1.30;;;;;;;12.31;78.56;101960.78;5086861;28;20027;-77
2023/05/16 08:57:02;;;;;;;4.78;2.10;;;;;;;12.14;77.22;101969.53;5105933;28;20381;-77
2023/05/16 08:59:28;;;;;;;6.57;1.55;;;;;;;12.05;77.00;101968.91;5097414;28;20050;-76
2023/05/16 09:01:54;;;;;;;3.83;1.35;;;;;;;11.96;76.82;101977.53;5079835;28;20028;-76
2023/05/16 09:04:20;;;;;;;6.72;1.15;;;;;;;11.80;81.12;101966.22;5104924;28;20027;-76
2023/05/16 09:06:47;;;;;;;3.60;1.08;;;;;;;11.88;82.97;101976.50;5103706;28;20035;-76
2023/05/16 09:09:12;;;;;;;3.90;1.20;;;;;;;11.86;80.66;101976.00;5087311;28;20035;-76
2023/05/16 09:11:38;;;;;;;5.50;0.95;;;;;;;11.93;81.99;101970.66;5106435;28;20031;-76
2023/05/16 09:14:06;;;;;;;3.90;2.42;;;;;;;11.91;79.97;101978.59;5099477;28;20111;-76
2023/05/16 09:16:32;;;;;;;3.38;0.90;;;;;;;12.02;81.77;101978.88;5103664;28;20026;-76
2023/05/16 09:18:59;;;;;;;4.47;1.42;;;;;;;11.94;83.50;101983.47;5109519;28;20477;-77
2023/05/16 09:21:27;;;;;;;9.32;1.50;;;;;;;11.84;81.23;101989.59;5093244;28;20488;-77
2023/05/16 09:23:53;;;;;;;6.28;1.15;;;;;;;12.15;80.82;101988.03;5087789;28;20027;-77
2023/05/16 09:26:18;;;;;;;5.25;1.20;;;;;;;12.41;80.24;101987.47;5089931;28;20967;-76
2023/05/16 09:28:44;;;;;;;10.32;1.58;;;;;;;12.24;82.61;102002.69;5111418;28;20568;-77
2023/05/16 09:31:25;;;;;;;2.67;1.05;;;;;;;11.96;81.28;101989.56;5104573;28;20028;-77
2023/05/16 09:33:51;;;;;;;6.53;1.33;;;;;;;12.32;79.83;101978.44;5106120;28;20020;-77
2023/05/16 09:36:17;;;;;;;3.70;1.13;;;;;;;12.37;79.89;101981.75;5105254;28;20028;-77
2023/05/16 09:38:43;;;;;;;2.13;0.90;;;;;;;12.67;78.81;101989.72;5108067;28;20054;-77
2023/05/16 09:41:09;;;;;;;3.40;1.35;;;;;;;12.72;76.79;101981.00;5108663;28;20408;-78
2023/05/16 09:43:40;;;;;;;6.15;1.48;;;;;;;12.70;73.61;101991.78;5110819;28;20035;-77
2023/05/16 09:46:06;;;;;;;17.83;2.28;;;;;;;12.82;74.38;101985.25;5108963;28;20053;-78
2023/05/16 09:48:32;;;;;;;5.38;1.50;;;;;;;12.88;73.53;101982.94;5111093;28;20032;-77
2023/05/16 09:51:02;;;;;;;2.85;1.48;;;;;;;13.20;72.75;101984.47;5100386;28;20028;-77
2023/05/16 09:53:32;;;;;;;6.75;1.52;;;;;;;13.29;72.48;101983.47;5087945;28;20055;-77
2023/05/16 09:56:03;;;;;;;5.70;1.65;;;;;;;13.10;73.84;101985.06;5090879;28;20034;-77
2023/05/16 09:58:33;;;;;;;2.63;0.90;;;;;;;12.97;73.38;101975.13;5094208;28;20461;-77
2023/05/16 10:01:00;;;;;;;3.47;1.00;;;;;;;12.71;75.83;101979.38;5105405;28;20366;-77
2023/05/16 10:03:26;;;;;;;3.70;1.20;;;;;;;12.80;77.74;101987.59;5107793;28;20023;-77
2023/05/16 10:05:52;;;;;;;11.13;1.85;;;;;;;12.66;78.94;101982.47;5092321;28;20511;-77
2023/05/16 10:08:23;;;;;;;3.97;1.48;;;;;;;12.76;79.35;101981.91;5110183;28;20400;-76
2023/05/16 10:10:53;;;;;;;4.90;1.00;;;;;;;12.79;75.13;101985.97;5089388;28;20032;-76
2023/05/16 10:13:27;;;;;;;5.57;1.13;;;;;;;12.87;75.89;101979.31;5109244;28;20036;-76
2023/05/16 10:15:55;;;;;;;6.65;0.93;;;;;;;12.85;72.04;101986.50;5095836;28;20037;-77
2023/05/16 10:18:23;;;;;;;3.47;1.20;;;;;;;12.72;70.86;101980.19;5105318;28;20095;-76
2023/05/16 10:20:52;;;;;;;1.63;0.70;;;;;;;12.67;71.06;101984.09;5107775;28;20601;-76
2023/05/16 10:23:20;;;;;;;7.30;1.25;;;;;;;13.02;71.09;101991.69;5086023;28;20011;-77
2023/05/16 10:25:47;;;;;;;2.65;1.00;;;;;;;13.21;72.63;101986.09;5108004;28;20556;-76
2023/05/16 10:28:13;;;;;;;3.25;1.02;;;;;;;13.49;71.24;101990.72;5089525;28;20032;-77
2023/05/16 10:30:42;;;;;;;18.70;1.50;;;;;;;13.63;72.53;101984.56;5086800;28;20028;-76
2023/05/16 10:33:12;;;;;;;5.60;1.30;;;;;;;13.32;71.69;101985.53;5091026;28;20134;-77
2023/05/16 10:35:38;;;;;;;9.30;1.65;;;;;;;13.32;71.62;101980.72;5104200;28;20019;-76
2023/05/16 10:38:05;;;;;;;4.97;1.20;;;;;;;13.22;73.95;101987.72;5104860;28;20027;-77
2023/05/16 10:40:31;;;;;;;3.20;0.98;;;;;;;13.04;75.12;101975.28;5098858;28;20040;-76
2023/05/16 10:42:58;;;;;;;4.57;1.23;;;;;;;13.05;75.17;101988.16;5085428;28;20570;-76
2023/05/16 10:45:24;;;;;;;6.10;1.48;;;;;;;13.55;74.07;101991.22;5110138;28;20089;-77
2023/05/16 10:47:53;;;;;;;4.38;1.38;;;;;;;13.99;70.43;101997.28;5091012;28;20477;-77
2023/05/16 10:50:37;;;;;;;17.33;1.58;;;;;;;13.58;72.31;101988.50;5093704;28;20115;-78
2023/05/16 10:53:19;;;;;;;5.57;1.63;;;;;;;13.33;69.55;101992.81;5097655;28;20092;-77
2023/05/16 10:55:48;;;;;;;7.15;1.50;;;;;;;13.09;69.22;101991.03;5107966;28;20038;-76
2023/05/16 10:58:43;;;;;;;6.20;1.33;;;;;;;13.62;67.91;101988.56;5105340;28;20020;-77
2023/05/16 11:01:32;;;;;;;7.75;1.88;;;;;;;14.12;68.41;101992.28;5073364;28;20402;-77
2023/05/16 11:03:58;;;;;;;3.88;1.15;;;;;;;13.82;65.31;101992.97;5100657;28;20485;-77
2023/05/16 11:06:28;;;;;;;9.10;1.45;;;;;;;13.69;69.13;101987.88;5100585;28;20024;-76
2023/05/16 11:11:50;;;;;;;5.38;1.77;;;;;;;13.79;70.41;101987.28;5097624;28;20534;-77
2023/05/16 11:14:31;;;;;;;2.88;1.17;;;;;;;13.98;67.81;101989.25;5091018;28;20032;-77
2023/05/16 11:17:09;;;;;;;2.58;1.40;;;;;;;14.27;66.15;101976.44;5094706;28;20031;-77
2023/05/16 11:19:47;;;;;;;4.93;1.40;;;;;;;14.31;66.46;101980.13;5108846;28;20035;-77
2023/05/16 11:22:18;;;;;;;4.75;1.10;;;;;;;14.19;65.41;101975.53;5106406;28;20031;-77
2023/05/16 11:24:56;;;;;;;3.28;1.35;;;;;;;14.13;68.37;101984.69;5085155;28;20521;-76